createdAt,value
2019-05-19T00:01:27.170Z,100593.78
2019-05-19T00:03:58.123Z,100589.36
2019-05-19T00:06:29.040Z,100585.17
2019-05-19T00:09:00.031Z,100585.36
2019-05-19T00:11:30.938Z,100587.09
2019-05-19T00:14:01.765Z,100588.09
2019-05-19T00:16:32.527Z,100586.77
2019-05-19T00:19:03.584Z,100579.87
2019-05-19T00:21:34.317Z,100578.22
2019-05-19T00:24:06.212Z,100582.52
2019-05-19T00:26:37.164Z,100584.02
2019-05-19T00:29:08.496Z,100585.02
2019-05-19T00:31:39.658Z,100585.23
2019-05-19T00:34:10.897Z,100586.28
2019-05-19T00:36:42.013Z,100592.19
2019-05-19T00:39:13.356Z,100581.89
2019-05-19T00:41:44.187Z,100580.67
2019-05-19T00:44:14.841Z,100583.70
2019-05-19T00:46:46.070Z,100580.08
2019-05-19T00:49:16.733Z,100583.63
2019-05-19T00:51:47.863Z,100582.45
2019-05-19T00:54:20.083Z,100586.08
2019-05-19T00:56:51.555Z,100585.80
2019-05-19T00:59:23.316Z,100585.42
2019-05-19T01:01:54.377Z,100579.77
2019-05-19T01:04:25.323Z,100591.11
2019-05-19T01:06:56.595Z,100587.52
2019-05-19T01:09:27.599Z,100593.37
2019-05-19T01:11:58.675Z,100590.89
2019-05-19T01:14:29.558Z,100590.78
2019-05-19T01:17:01.686Z,100584.70
2019-05-19T01:19:32.569Z,100586.15
2019-05-19T01:22:04.840Z,100577.80
2019-05-19T01:24:35.744Z,100583.55
2019-05-19T01:27:06.694Z,100581.72
2019-05-19T01:29:37.735Z,100588.47
2019-05-19T01:32:08.580Z,100585.30
2019-05-19T01:34:39.517Z,100581.45
2019-05-19T01:37:10.358Z,100581.94
2019-05-19T01:39:41.295Z,100580.17
2019-05-19T01:42:12.261Z,100582.84
2019-05-19T01:44:43.058Z,100572.83
2019-05-19T01:47:13.973Z,100580.66
2019-05-19T01:49:44.702Z,100581.28
2019-05-19T01:52:15.343Z,100576.20
2019-05-19T01:54:46.487Z,100578.91
2019-05-19T01:57:17.414Z,100579.85
2019-05-19T01:59:48.199Z,100580.23
2019-05-19T02:02:19.113Z,100582.94
2019-05-19T02:04:50.167Z,100586.80
2019-05-19T02:07:20.995Z,100589.94
2019-05-19T02:09:51.885Z,100588.23
2019-05-19T02:12:23.005Z,100597.47
2019-05-19T02:14:53.826Z,100593.84
2019-05-19T02:17:24.765Z,100593.73
2019-05-19T02:19:55.703Z,100602.59
2019-05-19T02:22:26.710Z,100597.05
2019-05-19T02:24:57.823Z,100595.58
2019-05-19T02:27:28.878Z,100598.02
2019-05-19T02:29:59.787Z,100599.89
2019-05-19T02:32:30.671Z,100605.36
2019-05-19T02:35:01.856Z,100598.91
2019-05-19T02:37:32.907Z,100604.86
2019-05-19T02:40:04.548Z,100605.05
2019-05-19T02:42:38.820Z,100609.02
2019-05-19T02:45:11.471Z,100601.98
2019-05-19T02:47:44.385Z,100601.16
2019-05-19T02:50:15.456Z,100604.30
2019-05-19T02:52:49.402Z,100607.29
2019-05-19T02:55:20.578Z,100603.60
2019-05-19T02:57:52.830Z,100600.39
2019-05-19T03:00:44.417Z,100604.22
2019-05-19T03:03:15.691Z,100607.37
2019-05-19T03:05:46.625Z,100607.37
2019-05-19T03:08:18.388Z,100598.62
2019-05-19T03:10:49.421Z,100606.02
2019-05-19T03:13:20.104Z,100600.72
2019-05-19T03:15:53.330Z,100594.98
2019-05-19T03:18:24.607Z,100598.57
2019-05-19T03:21:09.789Z,100595.52
2019-05-19T03:23:28.104Z,100600.55
2019-05-19T03:25:59.003Z,100594.48
2019-05-19T03:28:30.154Z,100588.14
2019-05-19T03:31:09.527Z,100589.02
2019-05-19T03:33:42.419Z,100588.19
2019-05-19T03:36:13.085Z,100588.40
2019-05-19T03:38:44.853Z,100592.12
2019-05-19T03:41:15.803Z,100591.05
2019-05-19T03:43:46.569Z,100593.94
2019-05-19T03:46:17.455Z,100592.44
2019-05-19T03:48:48.390Z,100589.47
2019-05-19T03:51:30.052Z,100600.50
2019-05-19T03:53:52.108Z,100596.81
2019-05-19T03:56:22.852Z,100598.89
2019-05-19T03:58:53.964Z,100598.10
2019-05-19T04:01:24.736Z,100600.70
2019-05-19T04:03:55.453Z,100603.76
2019-05-19T04:06:26.996Z,100610.80
2019-05-19T04:08:57.946Z,100617.69
2019-05-19T04:11:28.726Z,100608.21
2019-05-19T04:13:59.807Z,100594.08
2019-05-19T04:16:30.750Z,100602.84
2019-05-19T04:19:01.702Z,100595.52
2019-05-19T04:21:47.655Z,100603.60
2019-05-19T04:24:05.019Z,100604.55
2019-05-19T04:26:35.890Z,100606.87
2019-05-19T04:29:06.801Z,100608.68
2019-05-19T04:31:37.911Z,100606.03
2019-05-19T04:34:08.563Z,100604.55
2019-05-19T04:36:39.163Z,100609.51
2019-05-19T04:39:09.951Z,100607.70
2019-05-19T04:41:40.955Z,100600.88
2019-05-19T04:44:11.898Z,100599.63
2019-05-19T04:46:44.067Z,100599.51
2019-05-19T04:49:15.015Z,100598.06
2019-05-19T04:51:45.827Z,100599.13
2019-05-19T04:54:16.814Z,100600.95
2019-05-19T04:56:47.414Z,100590.51
2019-05-19T04:59:18.256Z,100596.36
2019-05-19T05:01:49.179Z,100590.44
2019-05-19T05:04:20.200Z,100594.94
2019-05-19T05:06:51.407Z,100591.70
2019-05-19T05:09:22.098Z,100591.47
2019-05-19T05:11:53.154Z,100586.86
2019-05-19T05:14:24.295Z,100589.20
2019-05-19T05:16:54.994Z,100590.08
2019-05-19T05:19:25.569Z,100585.78
2019-05-19T05:21:56.795Z,100589.91
2019-05-19T05:24:28.788Z,100587.67
2019-05-19T05:26:59.644Z,100585.87
2019-05-19T05:29:30.436Z,100583.64
2019-05-19T05:32:01.414Z,100584.00
2019-05-19T05:34:32.736Z,100580.11
2019-05-19T05:37:03.939Z,100573.09
2019-05-19T05:39:34.509Z,100578.67
2019-05-19T05:42:05.624Z,100569.83
2019-05-19T05:44:36.484Z,100572.73
2019-05-19T05:47:07.325Z,100565.19
2019-05-19T05:49:38.254Z,100564.00
2019-05-19T05:52:09.271Z,100567.34
2019-05-19T05:54:39.842Z,100572.77
2019-05-19T05:57:10.811Z,100577.64
2019-05-19T05:59:41.577Z,100575.67
2019-05-19T06:02:12.563Z,100572.65
2019-05-19T06:04:43.608Z,100578.09
2019-05-19T06:07:14.652Z,100575.36
2019-05-19T06:09:45.712Z,100570.47
2019-05-19T06:12:16.536Z,100573.04
2019-05-19T06:14:47.829Z,100574.37
2019-05-19T06:17:18.611Z,100576.91
2019-05-19T06:19:49.289Z,100578.64
2019-05-19T06:22:20.371Z,100572.56
2019-05-19T06:24:51.239Z,100580.70
2019-05-19T06:27:22.334Z,100581.47
2019-05-19T06:29:53.215Z,100577.48
2019-05-19T06:32:31.820Z,100579.77
2019-05-19T06:35:03.080Z,100574.91
2019-05-19T06:37:34.123Z,100580.70
2019-05-19T06:40:05.280Z,100579.71
2019-05-19T06:42:36.023Z,100580.84
2019-05-19T06:45:07.320Z,100581.16
2019-05-19T06:47:38.376Z,100579.06
2019-05-19T06:50:09.761Z,100573.86
2019-05-19T06:52:40.526Z,100561.94
2019-05-19T06:55:11.629Z,100569.77
2019-05-19T06:57:42.335Z,100563.66
2019-05-19T07:00:13.563Z,100567.27
2019-05-19T07:02:44.435Z,100572.97
2019-05-19T07:05:16.906Z,100566.83
2019-05-19T07:07:47.961Z,100562.16
2019-05-19T07:10:18.902Z,100562.40
2019-05-19T07:12:49.897Z,100567.17
2019-05-19T07:15:20.637Z,100563.85
2019-05-19T07:17:51.776Z,100564.81
2019-05-19T07:20:22.521Z,100559.20
2019-05-19T07:22:53.331Z,100555.81
2019-05-19T07:25:25.804Z,100557.57
2019-05-19T07:27:56.593Z,100551.02
2019-05-19T07:30:28.342Z,100554.48
2019-05-19T07:32:59.284Z,100557.23
2019-05-19T07:35:30.379Z,100552.52
2019-05-19T07:38:01.052Z,100548.67
2019-05-19T07:40:32.093Z,100555.69
2019-05-19T07:43:02.992Z,100559.41
2019-05-19T07:45:33.880Z,100561.77
2019-05-19T07:48:04.769Z,100562.86
2019-05-19T07:50:38.113Z,100556.63
2019-05-19T07:53:08.648Z,100552.94
2019-05-19T07:55:39.446Z,100554.79
2019-05-19T07:58:10.351Z,100563.16
2019-05-19T08:00:41.352Z,100563.16
2019-05-19T08:03:13.448Z,100553.76
2019-05-19T08:05:44.459Z,100552.30
2019-05-19T08:08:15.318Z,100550.53
2019-05-19T08:10:46.564Z,100552.91
2019-05-19T08:13:17.445Z,100551.64
2019-05-19T08:15:48.208Z,100558.14
2019-05-19T08:18:19.346Z,100553.66
2019-05-19T08:20:50.209Z,100561.33
2019-05-19T08:23:21.301Z,100558.08
2019-05-19T08:25:51.901Z,100551.39
2019-05-19T08:28:22.606Z,100554.58
2019-05-19T08:30:53.372Z,100549.76
2019-05-19T08:33:24.481Z,100543.77
2019-05-19T08:35:55.532Z,100537.49
2019-05-19T08:38:26.585Z,100543.80
2019-05-19T08:40:57.556Z,100544.41
2019-05-19T08:43:28.353Z,100541.28
2019-05-19T08:45:59.154Z,100540.75
2019-05-19T08:48:29.912Z,100541.77
2019-05-19T08:51:00.918Z,100540.72
2019-05-19T08:53:31.659Z,100538.44
2019-05-19T08:56:02.476Z,100543.17
2019-05-19T08:58:34.388Z,100539.56
2019-05-19T09:01:05.464Z,100541.98
2019-05-19T09:03:36.151Z,100545.72
2019-05-19T09:06:06.958Z,100549.27
2019-05-19T09:08:37.880Z,100548.28
2019-05-19T09:11:08.706Z,100544.73
2019-05-19T09:13:39.364Z,100542.45
2019-05-19T09:16:10.339Z,100549.94
2019-05-19T09:18:41.228Z,100551.17
2019-05-19T09:21:12.043Z,100549.91
2019-05-19T09:23:43.154Z,100557.50
2019-05-19T09:26:13.880Z,100553.41
2019-05-19T09:28:44.959Z,100555.54
2019-05-19T09:31:15.704Z,100557.55
2019-05-19T09:33:46.561Z,100554.59
2019-05-19T09:36:17.574Z,100547.83
2019-05-19T09:38:48.432Z,100551.96
2019-05-19T09:41:19.368Z,100544.65
2019-05-19T09:43:50.177Z,100539.80
2019-05-19T09:46:21.086Z,100534.91
2019-05-19T09:48:53.637Z,100531.28
2019-05-19T09:51:24.525Z,100529.00
2019-05-19T09:53:55.476Z,100539.56
2019-05-19T09:56:26.399Z,100531.42
2019-05-19T09:58:57.410Z,100533.78
2019-05-19T10:01:28.346Z,100533.47
2019-05-19T10:03:59.375Z,100524.88
2019-05-19T10:06:32.040Z,100527.89
2019-05-19T10:09:11.213Z,100530.30
2019-05-19T10:12:04.540Z,100535.01
2019-05-19T10:14:37.060Z,100530.39
2019-05-19T10:17:08.086Z,100531.03
2019-05-19T10:19:38.724Z,100525.59
2019-05-19T10:22:09.905Z,100530.97
2019-05-19T10:24:56.319Z,100522.66
2019-05-19T10:27:13.669Z,100521.97
2019-05-19T10:29:44.648Z,100521.00
2019-05-19T10:32:15.816Z,100508.93
2019-05-19T10:34:46.791Z,100509.66
2019-05-19T10:37:17.396Z,100512.34
2019-05-19T10:39:48.335Z,100518.58
2019-05-19T10:42:19.395Z,100508.55
2019-05-19T10:44:50.408Z,100512.84
2019-05-19T10:47:22.653Z,100520.80
2019-05-19T10:49:53.551Z,100517.38
2019-05-19T10:52:24.608Z,100522.73
2019-05-19T10:54:55.694Z,100521.78
2019-05-19T10:57:27.080Z,100524.72
2019-05-19T10:59:57.680Z,100528.55
2019-05-19T11:02:28.515Z,100525.95
2019-05-19T11:04:59.568Z,100520.84
2019-05-19T11:07:30.795Z,100519.21
2019-05-19T11:10:01.714Z,100520.56
2019-05-19T11:12:33.779Z,100524.78
2019-05-19T11:15:05.090Z,100527.63
2019-05-19T11:17:36.128Z,100523.86
2019-05-19T11:20:07.529Z,100523.73
2019-05-19T11:22:38.411Z,100518.65
2019-05-19T11:25:09.451Z,100515.20
2019-05-19T11:27:40.482Z,100510.70
2019-05-19T11:30:12.277Z,100504.59
2019-05-19T11:32:43.358Z,100500.73
2019-05-19T11:35:14.196Z,100503.44
2019-05-19T11:37:45.792Z,100495.92
2019-05-19T11:40:17.982Z,100492.55
2019-05-19T11:42:48.654Z,100482.42
2019-05-19T11:45:19.592Z,100474.06
2019-05-19T11:47:50.424Z,100465.96
2019-05-19T11:50:21.321Z,100466.38
2019-05-19T11:52:52.122Z,100461.77
2019-05-19T11:55:22.816Z,100460.89
2019-05-19T11:57:53.792Z,100461.84
2019-05-19T12:00:25.441Z,100453.34
2019-05-19T12:02:56.196Z,100446.45
2019-05-19T12:05:27.039Z,100442.91
2019-05-19T12:07:58.077Z,100442.91
2019-05-19T12:10:28.903Z,100446.72
2019-05-19T12:13:00.474Z,100438.73
2019-05-19T12:15:31.472Z,100436.16
2019-05-19T12:18:03.662Z,100432.17
2019-05-19T12:20:34.520Z,100428.16
2019-05-19T12:23:05.299Z,100421.78
2019-05-19T12:25:36.195Z,100429.27
2019-05-19T12:28:08.128Z,100434.73
2019-05-19T12:30:39.086Z,100431.52
2019-05-19T12:33:09.998Z,100428.30
2019-05-19T12:35:40.985Z,100434.22
2019-05-19T12:38:11.791Z,100434.22
2019-05-19T12:40:42.981Z,100428.36
2019-05-19T12:43:13.927Z,100430.42
2019-05-19T12:45:44.712Z,100429.35
2019-05-19T12:48:15.831Z,100424.49
2019-05-19T12:50:46.691Z,100425.95
2019-05-19T12:53:17.643Z,100417.59
2019-05-19T12:55:48.888Z,100416.70
2019-05-19T12:58:20.019Z,100413.45
2019-05-19T13:00:50.931Z,100406.14
2019-05-19T13:03:21.954Z,100402.13
2019-05-19T13:05:53.321Z,100393.92
2019-05-19T13:08:24.337Z,100393.92
2019-05-19T13:10:55.387Z,100408.53
2019-05-19T13:13:26.554Z,100408.53
2019-05-19T13:15:57.610Z,100409.53
2019-05-19T13:18:28.359Z,100409.70
2019-05-19T13:20:59.712Z,100397.67
2019-05-19T13:23:30.531Z,100406.59
2019-05-19T13:26:01.559Z,100402.46
2019-05-19T13:28:32.472Z,100406.78
2019-05-19T13:31:03.622Z,100398.71
2019-05-19T13:33:35.211Z,100393.55
2019-05-19T13:36:06.514Z,100391.39
2019-05-19T13:38:37.097Z,100387.84
2019-05-19T13:41:07.968Z,100389.31
2019-05-19T13:43:38.590Z,100402.48
2019-05-19T13:46:09.558Z,100397.09
2019-05-19T13:48:40.390Z,100390.77
2019-05-19T13:51:11.118Z,100390.19
2019-05-19T13:53:41.719Z,100384.83
2019-05-19T13:56:12.582Z,100372.83
2019-05-19T13:58:43.455Z,100361.41
2019-05-19T14:01:27.587Z,100364.20
2019-05-19T14:03:46.894Z,100350.60
2019-05-19T14:06:17.698Z,100355.37
2019-05-19T14:08:48.746Z,100345.89
2019-05-19T14:11:19.541Z,100341.38
2019-05-19T14:13:50.364Z,100337.18
2019-05-19T14:16:22.155Z,100336.58
2019-05-19T14:18:52.869Z,100342.25
2019-05-19T14:21:23.955Z,100336.11
2019-05-19T14:23:54.760Z,100345.02
2019-05-19T14:26:25.796Z,100343.60
2019-05-19T14:28:56.715Z,100343.70
2019-05-19T14:31:27.554Z,100348.97
2019-05-19T14:33:58.584Z,100335.42
2019-05-19T14:36:29.546Z,100336.95
2019-05-19T14:39:05.107Z,100338.30
2019-05-19T14:41:35.841Z,100332.23
2019-05-19T14:44:07.874Z,100328.41
2019-05-19T14:46:38.652Z,100328.81
2019-05-19T14:49:09.551Z,100331.59
2019-05-19T14:51:41.216Z,100328.44
2019-05-19T14:54:12.671Z,100327.01
2019-05-19T14:56:44.320Z,100324.13
2019-05-19T14:59:15.299Z,100322.98
2019-05-19T15:01:46.004Z,100327.77
2019-05-19T15:04:17.771Z,100333.28
2019-05-19T15:06:48.798Z,100335.20
2019-05-19T15:09:19.585Z,100331.17
2019-05-19T15:11:50.454Z,100324.17
2019-05-19T15:14:21.227Z,100324.64
2019-05-19T15:16:51.988Z,100321.56
2019-05-19T15:19:22.930Z,100322.91
2019-05-19T15:21:53.935Z,100329.44
2019-05-19T15:24:24.946Z,100324.84
2019-05-19T15:26:55.684Z,100326.00
2019-05-19T15:29:26.871Z,100321.44
2019-05-19T15:31:57.878Z,100317.03
2019-05-19T15:34:28.549Z,100316.84
2019-05-19T15:36:59.151Z,100306.11
2019-05-19T15:39:29.928Z,100299.91
2019-05-19T15:42:00.676Z,100305.34
2019-05-19T15:44:31.669Z,100306.48
2019-05-19T15:47:02.509Z,100303.35
2019-05-19T15:49:33.638Z,100301.71
2019-05-19T15:52:05.733Z,100302.95
2019-05-19T15:54:37.252Z,100308.96
2019-05-19T15:57:08.043Z,100306.76
2019-05-19T15:59:38.959Z,100313.75
2019-05-19T16:02:09.649Z,100318.52
2019-05-19T16:04:40.474Z,100322.13
2019-05-19T16:07:11.440Z,100325.28
2019-05-19T16:09:42.687Z,100325.66
2019-05-19T16:12:13.334Z,100327.09
2019-05-19T16:14:43.917Z,100325.95
2019-05-19T16:17:14.509Z,100330.45
2019-05-19T16:19:45.171Z,100328.27
2019-05-19T16:22:16.915Z,100336.31
2019-05-19T16:24:47.683Z,100338.69
2019-05-19T16:27:18.659Z,100334.00
2019-05-19T16:29:49.428Z,100337.76
2019-05-19T16:32:20.087Z,100327.40
2019-05-19T16:34:50.849Z,100321.44
2019-05-19T16:37:21.931Z,100328.34
2019-05-19T16:39:53.676Z,100327.26
2019-05-19T16:42:26.357Z,100329.73
2019-05-19T16:44:57.317Z,100329.94
2019-05-19T16:47:28.201Z,100318.64
2019-05-19T16:49:59.152Z,100325.62
2019-05-19T16:52:30.249Z,100315.19
2019-05-19T16:55:19.071Z,100318.24
2019-05-19T16:57:50.044Z,100313.45
2019-05-19T17:00:21.367Z,100317.27
2019-05-19T17:02:52.491Z,100322.93
2019-05-19T17:05:23.392Z,100316.80
2019-05-19T17:07:54.192Z,100303.56
2019-05-19T17:10:25.196Z,100310.77
2019-05-19T17:12:56.394Z,100300.30
2019-05-19T17:15:27.395Z,100301.87
2019-05-19T17:17:58.435Z,100302.84
2019-05-19T17:20:31.048Z,100309.71
2019-05-19T17:23:02.103Z,100308.88
2019-05-19T17:25:33.088Z,100309.34
2019-05-19T17:28:04.248Z,100306.05
2019-05-19T17:30:35.379Z,100308.36
2019-05-19T17:33:06.336Z,100310.06
2019-05-19T17:35:37.745Z,100308.45
2019-05-19T17:38:08.614Z,100304.91
2019-05-19T17:40:39.648Z,100306.61
2019-05-19T17:43:10.730Z,100306.50
2019-05-19T17:45:41.758Z,100309.63
2019-05-19T17:48:25.689Z,100307.87
2019-05-19T17:50:46.085Z,100307.77
2019-05-19T17:53:17.062Z,100312.80
2019-05-19T17:55:48.814Z,100312.96
2019-05-19T17:58:20.191Z,100305.89
2019-05-19T18:00:51.342Z,100311.03
2019-05-19T18:03:23.179Z,100314.63
2019-05-19T18:05:54.537Z,100314.18
2019-05-19T18:08:25.715Z,100317.52
2019-05-19T18:10:56.571Z,100314.22
2019-05-19T18:13:27.657Z,100317.18
2019-05-19T18:15:58.599Z,100325.83
2019-05-19T18:18:29.624Z,100329.66
2019-05-19T18:21:01.014Z,100333.58
2019-05-19T18:23:32.154Z,100331.08
2019-05-19T18:26:03.079Z,100329.34
2019-05-19T18:28:34.453Z,100338.48
2019-05-19T18:31:05.483Z,100338.13
2019-05-19T18:33:37.699Z,100344.91
2019-05-19T18:36:09.135Z,100345.47
2019-05-19T18:38:40.318Z,100346.09
2019-05-19T18:41:11.459Z,100340.27
2019-05-19T18:43:42.865Z,100337.78
2019-05-19T18:46:14.170Z,100351.63
2019-05-19T18:48:45.399Z,100348.48
2019-05-19T18:51:16.482Z,100350.06
2019-05-19T18:53:47.644Z,100350.94
2019-05-19T18:56:18.855Z,100354.58
2019-05-19T18:58:50.197Z,100357.95
2019-05-19T19:01:21.589Z,100357.26
2019-05-19T19:03:52.727Z,100358.36
2019-05-19T19:06:26.239Z,100361.41
2019-05-19T19:08:57.317Z,100352.41
2019-05-19T19:11:28.218Z,100356.46
2019-05-19T19:13:59.478Z,100354.40
2019-05-19T19:16:30.406Z,100353.56
2019-05-19T19:19:03.438Z,100359.27
2019-05-19T19:21:34.109Z,100353.92
2019-05-19T19:24:05.158Z,100355.03
2019-05-19T19:26:35.872Z,100355.28
2019-05-19T19:29:06.860Z,100355.05
2019-05-19T19:31:48.182Z,100358.17
2019-05-19T19:34:10.193Z,100355.42
2019-05-19T19:36:41.402Z,100353.94
2019-05-19T19:39:13.055Z,100355.16
2019-05-19T19:41:44.463Z,100358.55
2019-05-19T19:44:15.357Z,100355.22
2019-05-19T19:46:46.277Z,100358.90
2019-05-19T19:49:17.501Z,100363.48
2019-05-19T19:51:48.549Z,100359.14
2019-05-19T19:54:19.599Z,100362.44
2019-05-19T19:56:50.563Z,100355.69
2019-05-19T19:59:21.501Z,100359.64
2019-05-19T20:01:52.717Z,100358.03
2019-05-19T20:04:23.894Z,100359.25
2019-05-19T20:06:55.039Z,100362.33
2019-05-19T20:09:26.131Z,100359.45
2019-05-19T20:11:57.193Z,100362.25
2019-05-19T20:14:28.047Z,100364.59
2019-05-19T20:16:58.876Z,100366.92
2019-05-19T20:19:30.066Z,100358.59
2019-05-19T20:22:03.067Z,100365.18
2019-05-19T20:24:41.633Z,100354.80
2019-05-19T20:27:12.529Z,100360.47
2019-05-19T20:29:43.319Z,100352.42
2019-05-19T20:32:14.221Z,100364.14
2019-05-19T20:34:45.009Z,100356.34
2019-05-19T20:37:16.127Z,100353.75
2019-05-19T20:39:47.292Z,100357.30
2019-05-19T20:42:18.004Z,100358.75
2019-05-19T20:44:48.878Z,100367.84
2019-05-19T20:47:20.249Z,100368.88
2019-05-19T20:49:51.190Z,100368.50
2019-05-19T20:52:21.961Z,100375.17
2019-05-19T20:54:52.968Z,100376.77
2019-05-19T20:57:23.927Z,100384.13
2019-05-19T20:59:54.726Z,100374.25
2019-05-19T21:02:25.539Z,100373.82
2019-05-19T21:04:56.493Z,100381.61
2019-05-19T21:07:27.230Z,100379.23
2019-05-19T21:09:58.173Z,100384.19
2019-05-19T21:12:29.110Z,100381.52
2019-05-19T21:14:59.879Z,100382.59
2019-05-19T21:17:30.808Z,100377.09
2019-05-19T21:20:02.700Z,100383.68
2019-05-19T21:22:33.779Z,100382.69
2019-05-19T21:25:04.997Z,100383.52
2019-05-19T21:27:36.071Z,100384.75
2019-05-19T21:30:07.698Z,100387.61
2019-05-19T21:32:38.759Z,100383.54
2019-05-19T21:35:09.932Z,100383.77
2019-05-19T21:37:41.103Z,100376.72
2019-05-19T21:40:11.949Z,100375.13
2019-05-19T21:42:44.150Z,100378.33
2019-05-19T21:45:15.577Z,100388.12
2019-05-19T21:47:46.598Z,100384.00
2019-05-19T21:50:17.530Z,100381.34
2019-05-19T21:52:49.446Z,100374.59
2019-05-19T21:55:20.367Z,100379.86
2019-05-19T21:57:51.237Z,100374.59
2019-05-19T22:00:25.122Z,100374.75
2019-05-19T22:02:57.322Z,100378.59
2019-05-19T22:05:28.400Z,100379.33
2019-05-19T22:08:06.848Z,100381.08
2019-05-19T22:10:37.917Z,100371.55
2019-05-19T22:13:09.060Z,100370.48
2019-05-19T22:15:40.098Z,100377.26
2019-05-19T22:18:10.858Z,100374.52
2019-05-19T22:20:41.740Z,100378.33
2019-05-19T22:23:12.704Z,100373.53
2019-05-19T22:25:43.953Z,100375.71
2019-05-19T22:28:14.756Z,100375.52
2019-05-19T22:30:45.705Z,100371.24
2019-05-19T22:33:16.875Z,100375.78
2019-05-19T22:35:47.922Z,100374.72
2019-05-19T22:38:19.507Z,100379.56
2019-05-19T22:40:50.473Z,100383.81
2019-05-19T22:43:21.454Z,100372.90
2019-05-19T22:45:52.776Z,100375.27
2019-05-19T22:48:23.701Z,100380.38
2019-05-19T22:50:54.685Z,100376.52
2019-05-19T22:53:25.853Z,100376.91
2019-05-19T22:55:56.781Z,100374.05
2019-05-19T22:58:27.883Z,100372.84
2019-05-19T23:00:58.952Z,100367.25
2019-05-19T23:03:30.166Z,100367.21
2019-05-19T23:06:00.907Z,100374.70
2019-05-19T23:08:32.092Z,100368.64
2019-05-19T23:11:03.347Z,100366.09
2019-05-19T23:13:34.319Z,100369.83
2019-05-19T23:16:05.523Z,100369.52
2019-05-19T23:18:36.191Z,100371.89
2019-05-19T23:21:06.933Z,100376.20
2019-05-19T23:23:38.147Z,100376.20
2019-05-19T23:26:09.026Z,100381.20
2019-05-19T23:28:39.981Z,100378.50
2019-05-19T23:31:10.960Z,100382.03
2019-05-19T23:33:41.854Z,100381.69
2019-05-19T23:36:12.701Z,100377.23
2019-05-19T23:38:43.527Z,100376.14
2019-05-19T23:41:14.462Z,100370.64
2019-05-19T23:43:45.785Z,100368.21
2019-05-19T23:46:17.083Z,100372.13
2019-05-19T23:48:48.934Z,100373.47
2019-05-19T23:51:20.047Z,100374.80
2019-05-19T23:53:51.048Z,100374.16
2019-05-19T23:56:22.046Z,100369.48
2019-05-19T23:58:52.889Z,100361.09
